sensor_id;sensor_type;location;lat;lon;timestamp;P1;durP1;ratioP1;P2;durP2;ratioP2
72117;SDS011;59992;47.490;8.736;2023-02-28T00:01:55;10.00;;;4.60;;
72117;SDS011;59992;47.490;8.736;2023-02-28T00:04:26;10.10;;;4.40;;
72117;SDS011;59992;47.490;8.736;2023-02-28T00:06:56;10.70;;;5.20;;
72117;SDS011;59992;47.490;8.736;2023-02-28T00:09:26;9.70;;;5.00;;
72117;SDS011;59992;47.490;8.736;2023-02-28T00:11:55;9.10;;;4.80;;
72117;SDS011;59992;47.490;8.736;2023-02-28T00:14:25;8.10;;;4.90;;
72117;SDS011;59992;47.490;8.736;2023-02-28T00:16:54;8.90;;;5.90;;
72117;SDS011;59992;47.490;8.736;2023-02-28T00:19:24;10.00;;;5.80;;
72117;SDS011;59992;47.490;8.736;2023-02-28T00:21:53;7.20;;;4.30;;
72117;SDS011;59992;47.490;8.736;2023-02-28T00:24:23;10.20;;;4.90;;
72117;SDS011;59992;47.490;8.736;2023-02-28T00:26:53;10.00;;;5.40;;
72117;SDS011;59992;47.490;8.736;2023-02-28T00:29:22;9.30;;;5.30;;
72117;SDS011;59992;47.490;8.736;2023-02-28T00:31:51;9.00;;;5.50;;
72117;SDS011;59992;47.490;8.736;2023-02-28T00:34:21;9.40;;;5.60;;
72117;SDS011;59992;47.490;8.736;2023-02-28T00:36:50;8.50;;;4.80;;
72117;SDS011;59992;47.490;8.736;2023-02-28T00:39:21;11.00;;;5.20;;
72117;SDS011;59992;47.490;8.736;2023-02-28T00:41:50;9.40;;;5.40;;
72117;SDS011;59992;47.490;8.736;2023-02-28T00:44:20;9.90;;;6.00;;
72117;SDS011;59992;47.490;8.736;2023-02-28T00:46:50;9.70;;;5.20;;
72117;SDS011;59992;47.490;8.736;2023-02-28T00:49:20;14.80;;;6.30;;
72117;SDS011;59992;47.490;8.736;2023-02-28T00:51:51;13.00;;;6.30;;
72117;SDS011;59992;47.490;8.736;2023-02-28T00:54:21;11.70;;;6.20;;
72117;SDS011;59992;47.490;8.736;2023-02-28T00:56:52;10.50;;;5.60;;
72117;SDS011;59992;47.490;8.736;2023-02-28T00:59:21;8.90;;;4.80;;
72117;SDS011;59992;47.490;8.736;2023-02-28T01:01:51;13.20;;;6.80;;
72117;SDS011;59992;47.490;8.736;2023-02-28T01:04:20;10.30;;;5.40;;
72117;SDS011;59992;47.490;8.736;2023-02-28T01:06:50;9.30;;;5.50;;
72117;SDS011;59992;47.490;8.736;2023-02-28T01:09:19;8.90;;;5.40;;
72117;SDS011;59992;47.490;8.736;2023-02-28T01:11:49;8.80;;;5.80;;
72117;SDS011;59992;47.490;8.736;2023-02-28T01:14:19;11.10;;;5.50;;
72117;SDS011;59992;47.490;8.736;2023-02-28T01:16:48;10.30;;;5.80;;
72117;SDS011;59992;47.490;8.736;2023-02-28T01:19:18;9.00;;;5.00;;
72117;SDS011;59992;47.490;8.736;2023-02-28T01:21:48;11.50;;;6.70;;
72117;SDS011;59992;47.490;8.736;2023-02-28T01:24:18;9.90;;;5.30;;
72117;SDS011;59992;47.490;8.736;2023-02-28T01:26:48;9.50;;;5.60;;
72117;SDS011;59992;47.490;8.736;2023-02-28T01:29:17;11.50;;;5.50;;
72117;SDS011;59992;47.490;8.736;2023-02-28T01:31:47;10.80;;;5.70;;
72117;SDS011;59992;47.490;8.736;2023-02-28T01:34:26;11.30;;;6.40;;
72117;SDS011;59992;47.490;8.736;2023-02-28T01:36:56;9.90;;;5.90;;
72117;SDS011;59992;47.490;8.736;2023-02-28T01:39:26;13.10;;;6.10;;
72117;SDS011;59992;47.490;8.736;2023-02-28T01:41:58;9.40;;;5.70;;
72117;SDS011;59992;47.490;8.736;2023-02-28T01:47:27;9.40;;;5.80;;
72117;SDS011;59992;47.490;8.736;2023-02-28T01:50:01;10.40;;;5.70;;
72117;SDS011;59992;47.490;8.736;2023-02-28T01:52:33;12.10;;;6.00;;
72117;SDS011;59992;47.490;8.736;2023-02-28T01:55:04;10.40;;;5.50;;
72117;SDS011;59992;47.490;8.736;2023-02-28T01:57:36;13.20;;;6.40;;
72117;SDS011;59992;47.490;8.736;2023-02-28T02:00:11;10.00;;;5.70;;
72117;SDS011;59992;47.490;8.736;2023-02-28T02:02:49;9.90;;;5.10;;
72117;SDS011;59992;47.490;8.736;2023-02-28T02:05:22;11.20;;;6.00;;
72117;SDS011;59992;47.490;8.736;2023-02-28T02:07:54;9.30;;;5.30;;
72117;SDS011;59992;47.490;8.736;2023-02-28T02:10:29;10.40;;;5.30;;
72117;SDS011;59992;47.490;8.736;2023-02-28T02:13:05;12.20;;;6.80;;
72117;SDS011;59992;47.490;8.736;2023-02-28T02:15:44;11.20;;;6.20;;
72117;SDS011;59992;47.490;8.736;2023-02-28T02:18:26;9.50;;;5.00;;
72117;SDS011;59992;47.490;8.736;2023-02-28T02:24:22;9.30;;;5.60;;
72117;SDS011;59992;47.490;8.736;2023-02-28T02:27:11;8.30;;;5.00;;
72117;SDS011;59992;47.490;8.736;2023-02-28T02:29:54;11.20;;;5.40;;
72117;SDS011;59992;47.490;8.736;2023-02-28T02:35:34;10.20;;;5.90;;
72117;SDS011;59992;47.490;8.736;2023-02-28T02:38:11;11.70;;;5.60;;
72117;SDS011;59992;47.490;8.736;2023-02-28T02:40:47;10.90;;;6.00;;
72117;SDS011;59992;47.490;8.736;2023-02-28T02:43:25;8.70;;;5.70;;
72117;SDS011;59992;47.490;8.736;2023-02-28T02:46:01;10.70;;;5.50;;
72117;SDS011;59992;47.490;8.736;2023-02-28T02:48:36;11.50;;;5.40;;
72117;SDS011;59992;47.490;8.736;2023-02-28T02:51:11;9.20;;;5.70;;
72117;SDS011;59992;47.490;8.736;2023-02-28T02:53:44;11.00;;;5.90;;
72117;SDS011;59992;47.490;8.736;2023-02-28T02:56:17;11.60;;;6.20;;
72117;SDS011;59992;47.490;8.736;2023-02-28T02:58:48;15.00;;;6.10;;
72117;SDS011;59992;47.490;8.736;2023-02-28T03:01:21;15.50;;;6.40;;
72117;SDS011;59992;47.490;8.736;2023-02-28T03:03:56;14.40;;;6.40;;
72117;SDS011;59992;47.490;8.736;2023-02-28T03:06:29;11.60;;;5.90;;
72117;SDS011;59992;47.490;8.736;2023-02-28T03:08:58;13.50;;;5.60;;
72117;SDS011;59992;47.490;8.736;2023-02-28T03:11:28;14.80;;;6.80;;
72117;SDS011;59992;47.490;8.736;2023-02-28T03:14:08;10.20;;;6.20;;
72117;SDS011;59992;47.490;8.736;2023-02-28T03:16:57;8.90;;;5.80;;
72117;SDS011;59992;47.490;8.736;2023-02-28T03:19:44;12.20;;;5.40;;
72117;SDS011;59992;47.490;8.736;2023-02-28T03:22:27;10.30;;;6.00;;
72117;SDS011;59992;47.490;8.736;2023-02-28T03:25:12;9.30;;;4.90;;
72117;SDS011;59992;47.490;8.736;2023-02-28T03:27:49;11.80;;;6.20;;
72117;SDS011;59992;47.490;8.736;2023-02-28T03:30:27;8.10;;;5.10;;
72117;SDS011;59992;47.490;8.736;2023-02-28T03:33:05;11.70;;;6.00;;
72117;SDS011;59992;47.490;8.736;2023-02-28T03:35:42;10.40;;;5.60;;
72117;SDS011;59992;47.490;8.736;2023-02-28T03:38:16;9.80;;;5.20;;
72117;SDS011;59992;47.490;8.736;2023-02-28T03:40:50;10.50;;;5.30;;
72117;SDS011;59992;47.490;8.736;2023-02-28T03:43:26;9.20;;;5.40;;
72117;SDS011;59992;47.490;8.736;2023-02-28T03:46:01;10.60;;;5.90;;
72117;SDS011;59992;47.490;8.736;2023-02-28T03:48:37;9.20;;;5.20;;
72117;SDS011;59992;47.490;8.736;2023-02-28T03:51:10;9.30;;;5.40;;
72117;SDS011;59992;47.490;8.736;2023-02-28T03:53:46;9.50;;;5.50;;
72117;SDS011;59992;47.490;8.736;2023-02-28T03:56:22;10.50;;;5.70;;
72117;SDS011;59992;47.490;8.736;2023-02-28T03:58:58;12.10;;;6.00;;
72117;SDS011;59992;47.490;8.736;2023-02-28T04:01:33;10.60;;;6.00;;
72117;SDS011;59992;47.490;8.736;2023-02-28T04:04:08;8.10;;;4.80;;
72117;SDS011;59992;47.490;8.736;2023-02-28T04:06:39;7.20;;;4.50;;
72117;SDS011;59992;47.490;8.736;2023-02-28T04:09:09;10.30;;;5.70;;
72117;SDS011;59992;47.490;8.736;2023-02-28T04:11:40;11.20;;;6.00;;
72117;SDS011;59992;47.490;8.736;2023-02-28T04:14:13;9.60;;;5.70;;
72117;SDS011;59992;47.490;8.736;2023-02-28T04:16:42;8.90;;;5.20;;
72117;SDS011;59992;47.490;8.736;2023-02-28T04:19:13;8.20;;;5.10;;
72117;SDS011;59992;47.490;8.736;2023-02-28T04:21:44;7.60;;;5.00;;
72117;SDS011;59992;47.490;8.736;2023-02-28T04:24:15;10.20;;;5.40;;
72117;SDS011;59992;47.490;8.736;2023-02-28T04:26:47;8.40;;;4.80;;
72117;SDS011;59992;47.490;8.736;2023-02-28T04:29:19;8.60;;;5.20;;
72117;SDS011;59992;47.490;8.736;2023-02-28T04:31:50;8.60;;;5.40;;
72117;SDS011;59992;47.490;8.736;2023-02-28T04:34:20;11.10;;;5.40;;
72117;SDS011;59992;47.490;8.736;2023-02-28T04:36:51;9.60;;;5.60;;
72117;SDS011;59992;47.490;8.736;2023-02-28T04:39:22;7.90;;;5.50;;
72117;SDS011;59992;47.490;8.736;2023-02-28T04:41:53;8.70;;;5.20;;
72117;SDS011;59992;47.490;8.736;2023-02-28T04:44:23;10.00;;;4.50;;
72117;SDS011;59992;47.490;8.736;2023-02-28T04:46:54;8.70;;;4.80;;
72117;SDS011;59992;47.490;8.736;2023-02-28T04:49:24;9.50;;;4.90;;
72117;SDS011;59992;47.490;8.736;2023-02-28T04:51:54;9.60;;;5.70;;
72117;SDS011;59992;47.490;8.736;2023-02-28T04:54:24;8.70;;;5.30;;
72117;SDS011;59992;47.490;8.736;2023-02-28T04:56:53;8.50;;;5.80;;
72117;SDS011;59992;47.490;8.736;2023-02-28T04:59:24;7.80;;;4.40;;
72117;SDS011;59992;47.490;8.736;2023-02-28T05:01:54;8.40;;;4.60;;
72117;SDS011;59992;47.490;8.736;2023-02-28T05:04:25;8.10;;;5.00;;
72117;SDS011;59992;47.490;8.736;2023-02-28T05:06:54;8.30;;;5.20;;
72117;SDS011;59992;47.490;8.736;2023-02-28T05:09:24;8.80;;;5.50;;
72117;SDS011;59992;47.490;8.736;2023-02-28T05:11:53;9.20;;;4.50;;
72117;SDS011;59992;47.490;8.736;2023-02-28T05:14:23;10.10;;;5.60;;
72117;SDS011;59992;47.490;8.736;2023-02-28T05:16:53;8.90;;;4.90;;
72117;SDS011;59992;47.490;8.736;2023-02-28T05:19:23;8.50;;;5.40;;
72117;SDS011;59992;47.490;8.736;2023-02-28T05:21:53;13.00;;;5.00;;
72117;SDS011;59992;47.490;8.736;2023-02-28T05:24:23;9.70;;;4.50;;
72117;SDS011;59992;47.490;8.736;2023-02-28T05:26:53;8.00;;;5.30;;
72117;SDS011;59992;47.490;8.736;2023-02-28T05:29:22;7.50;;;4.40;;
72117;SDS011;59992;47.490;8.736;2023-02-28T05:31:53;10.00;;;4.80;;
72117;SDS011;59992;47.490;8.736;2023-02-28T05:34:22;8.70;;;4.60;;
72117;SDS011;59992;47.490;8.736;2023-02-28T05:36:53;10.80;;;5.30;;
72117;SDS011;59992;47.490;8.736;2023-02-28T05:39:23;9.10;;;5.20;;
72117;SDS011;59992;47.490;8.736;2023-02-28T05:41:52;9.20;;;5.00;;
72117;SDS011;59992;47.490;8.736;2023-02-28T05:44:23;8.40;;;5.00;;
72117;SDS011;59992;47.490;8.736;2023-02-28T05:46:52;10.60;;;5.00;;
72117;SDS011;59992;47.490;8.736;2023-02-28T05:49:22;12.00;;;4.80;;
72117;SDS011;59992;47.490;8.736;2023-02-28T05:51:52;10.00;;;5.90;;
72117;SDS011;59992;47.490;8.736;2023-02-28T05:54:23;9.80;;;5.00;;
72117;SDS011;59992;47.490;8.736;2023-02-28T05:56:53;8.20;;;4.70;;
72117;SDS011;59992;47.490;8.736;2023-02-28T05:59:22;7.80;;;5.10;;
72117;SDS011;59992;47.490;8.736;2023-02-28T06:01:52;9.60;;;5.30;;
72117;SDS011;59992;47.490;8.736;2023-02-28T06:04:22;10.20;;;6.00;;
72117;SDS011;59992;47.490;8.736;2023-02-28T06:06:52;10.30;;;5.50;;
72117;SDS011;59992;47.490;8.736;2023-02-28T06:09:22;9.00;;;5.30;;
72117;SDS011;59992;47.490;8.736;2023-02-28T06:11:51;8.30;;;4.70;;
72117;SDS011;59992;47.490;8.736;2023-02-28T06:14:21;10.50;;;4.90;;
72117;SDS011;59992;47.490;8.736;2023-02-28T06:16:51;8.00;;;5.00;;
72117;SDS011;59992;47.490;8.736;2023-02-28T06:19:20;10.40;;;5.90;;
72117;SDS011;59992;47.490;8.736;2023-02-28T06:21:52;9.20;;;5.10;;
72117;SDS011;59992;47.490;8.736;2023-02-28T06:24:24;7.90;;;4.90;;
72117;SDS011;59992;47.490;8.736;2023-02-28T06:26:55;8.90;;;4.90;;
72117;SDS011;59992;47.490;8.736;2023-02-28T06:29:33;9.70;;;6.20;;
72117;SDS011;59992;47.490;8.736;2023-02-28T06:32:06;10.80;;;6.10;;
72117;SDS011;59992;47.490;8.736;2023-02-28T06:34:36;11.60;;;5.60;;
72117;SDS011;59992;47.490;8.736;2023-02-28T06:37:05;10.50;;;5.50;;
72117;SDS011;59992;47.490;8.736;2023-02-28T06:39:35;9.60;;;5.50;;
72117;SDS011;59992;47.490;8.736;2023-02-28T06:42:04;9.20;;;5.50;;
72117;SDS011;59992;47.490;8.736;2023-02-28T06:44:34;9.40;;;5.20;;
72117;SDS011;59992;47.490;8.736;2023-02-28T06:47:05;8.90;;;5.10;;
72117;SDS011;59992;47.490;8.736;2023-02-28T06:49:34;10.10;;;5.90;;
72117;SDS011;59992;47.490;8.736;2023-02-28T06:52:05;9.60;;;5.70;;
72117;SDS011;59992;47.490;8.736;2023-02-28T06:54:37;11.90;;;5.50;;
72117;SDS011;59992;47.490;8.736;2023-02-28T06:57:06;9.50;;;5.60;;
72117;SDS011;59992;47.490;8.736;2023-02-28T06:59:36;10.40;;;5.20;;
72117;SDS011;59992;47.490;8.736;2023-02-28T07:02:07;11.10;;;5.10;;
72117;SDS011;59992;47.490;8.736;2023-02-28T07:04:37;9.10;;;5.50;;
72117;SDS011;59992;47.490;8.736;2023-02-28T07:07:10;11.50;;;6.50;;
72117;SDS011;59992;47.490;8.736;2023-02-28T07:09:40;11.30;;;5.20;;
72117;SDS011;59992;47.490;8.736;2023-02-28T07:12:10;10.00;;;5.20;;
72117;SDS011;59992;47.490;8.736;2023-02-28T07:14:40;10.20;;;5.70;;
72117;SDS011;59992;47.490;8.736;2023-02-28T07:17:10;12.10;;;5.70;;
72117;SDS011;59992;47.490;8.736;2023-02-28T07:19:40;10.20;;;5.90;;
72117;SDS011;59992;47.490;8.736;2023-02-28T07:22:09;9.30;;;5.60;;
72117;SDS011;59992;47.490;8.736;2023-02-28T07:24:39;10.50;;;4.90;;
72117;SDS011;59992;47.490;8.736;2023-02-28T07:27:08;10.40;;;5.50;;
72117;SDS011;59992;47.490;8.736;2023-02-28T07:29:38;11.20;;;5.70;;
72117;SDS011;59992;47.490;8.736;2023-02-28T07:32:07;10.90;;;6.70;;
72117;SDS011;59992;47.490;8.736;2023-02-28T07:34:38;11.00;;;5.30;;
72117;SDS011;59992;47.490;8.736;2023-02-28T07:37:07;12.70;;;6.30;;
72117;SDS011;59992;47.490;8.736;2023-02-28T07:39:37;10.50;;;5.90;;
72117;SDS011;59992;47.490;8.736;2023-02-28T07:42:09;9.90;;;5.80;;
72117;SDS011;59992;47.490;8.736;2023-02-28T07:44:39;10.30;;;5.90;;
72117;SDS011;59992;47.490;8.736;2023-02-28T07:47:09;10.20;;;6.00;;
72117;SDS011;59992;47.490;8.736;2023-02-28T07:49:39;10.90;;;6.20;;
72117;SDS011;59992;47.490;8.736;2023-02-28T07:52:09;10.00;;;5.60;;
72117;SDS011;59992;47.490;8.736;2023-02-28T07:54:40;9.40;;;5.40;;
72117;SDS011;59992;47.490;8.736;2023-02-28T07:57:10;10.40;;;5.50;;
72117;SDS011;59992;47.490;8.736;2023-02-28T07:59:39;12.20;;;6.00;;
72117;SDS011;59992;47.490;8.736;2023-02-28T08:02:10;11.30;;;5.80;;
72117;SDS011;59992;47.490;8.736;2023-02-28T08:04:41;9.40;;;5.50;;
72117;SDS011;59992;47.490;8.736;2023-02-28T08:07:13;11.40;;;6.20;;
72117;SDS011;59992;47.490;8.736;2023-02-28T08:09:43;11.20;;;5.80;;
72117;SDS011;59992;47.490;8.736;2023-02-28T08:12:13;10.40;;;5.90;;
72117;SDS011;59992;47.490;8.736;2023-02-28T08:14:42;8.40;;;4.60;;
72117;SDS011;59992;47.490;8.736;2023-02-28T08:17:11;10.40;;;5.90;;
72117;SDS011;59992;47.490;8.736;2023-02-28T08:19:41;9.80;;;5.50;;
72117;SDS011;59992;47.490;8.736;2023-02-28T08:22:12;12.50;;;6.30;;
72117;SDS011;59992;47.490;8.736;2023-02-28T08:24:42;11.10;;;6.40;;
72117;SDS011;59992;47.490;8.736;2023-02-28T08:27:12;11.10;;;6.30;;
72117;SDS011;59992;47.490;8.736;2023-02-28T08:29:45;12.20;;;6.50;;
72117;SDS011;59992;47.490;8.736;2023-02-28T08:32:15;10.50;;;6.40;;
72117;SDS011;59992;47.490;8.736;2023-02-28T08:34:44;12.20;;;6.30;;
72117;SDS011;59992;47.490;8.736;2023-02-28T08:37:14;11.70;;;6.60;;
72117;SDS011;59992;47.490;8.736;2023-02-28T08:39:43;10.90;;;6.10;;
72117;SDS011;59992;47.490;8.736;2023-02-28T08:42:13;11.30;;;5.80;;
72117;SDS011;59992;47.490;8.736;2023-02-28T08:44:42;12.20;;;6.80;;
72117;SDS011;59992;47.490;8.736;2023-02-28T08:47:12;10.40;;;6.50;;
72117;SDS011;59992;47.490;8.736;2023-02-28T08:49:43;12.10;;;6.20;;
72117;SDS011;59992;47.490;8.736;2023-02-28T08:52:13;10.90;;;6.50;;
72117;SDS011;59992;47.490;8.736;2023-02-28T08:54:42;11.70;;;6.30;;
72117;SDS011;59992;47.490;8.736;2023-02-28T08:57:12;11.80;;;6.30;;
72117;SDS011;59992;47.490;8.736;2023-02-28T08:59:42;11.10;;;6.30;;
72117;SDS011;59992;47.490;8.736;2023-02-28T09:02:13;13.20;;;6.70;;
72117;SDS011;59992;47.490;8.736;2023-02-28T09:04:43;11.30;;;6.40;;
72117;SDS011;59992;47.490;8.736;2023-02-28T09:07:13;10.80;;;6.10;;
72117;SDS011;59992;47.490;8.736;2023-02-28T09:09:43;12.00;;;6.50;;
72117;SDS011;59992;47.490;8.736;2023-02-28T09:12:21;12.30;;;7.00;;
72117;SDS011;59992;47.490;8.736;2023-02-28T09:14:51;12.30;;;6.50;;
72117;SDS011;59992;47.490;8.736;2023-02-28T09:17:22;11.10;;;6.60;;
72117;SDS011;59992;47.490;8.736;2023-02-28T09:19:52;9.60;;;5.00;;
72117;SDS011;59992;47.490;8.736;2023-02-28T09:22:22;11.90;;;6.40;;
72117;SDS011;59992;47.490;8.736;2023-02-28T09:24:52;12.00;;;6.90;;
72117;SDS011;59992;47.490;8.736;2023-02-28T09:27:21;10.80;;;5.90;;
72117;SDS011;59992;47.490;8.736;2023-02-28T09:29:51;11.00;;;5.50;;
72117;SDS011;59992;47.490;8.736;2023-02-28T09:32:21;10.20;;;6.00;;
72117;SDS011;59992;47.490;8.736;2023-02-28T09:34:51;14.10;;;6.70;;
72117;SDS011;59992;47.490;8.736;2023-02-28T09:37:21;11.90;;;6.40;;
72117;SDS011;59992;47.490;8.736;2023-02-28T09:39:50;11.30;;;6.90;;
72117;SDS011;59992;47.490;8.736;2023-02-28T09:42:21;10.00;;;5.80;;
72117;SDS011;59992;47.490;8.736;2023-02-28T09:44:57;10.70;;;6.20;;
72117;SDS011;59992;47.490;8.736;2023-02-28T09:47:30;12.10;;;6.60;;
72117;SDS011;59992;47.490;8.736;2023-02-28T09:50:06;9.20;;;5.70;;
72117;SDS011;59992;47.490;8.736;2023-02-28T09:52:45;9.70;;;5.40;;
72117;SDS011;59992;47.490;8.736;2023-02-28T09:55:20;11.40;;;6.30;;
72117;SDS011;59992;47.490;8.736;2023-02-28T09:57:56;11.50;;;5.80;;
72117;SDS011;59992;47.490;8.736;2023-02-28T10:00:29;9.30;;;5.50;;
72117;SDS011;59992;47.490;8.736;2023-02-28T10:03:10;11.60;;;6.50;;
72117;SDS011;59992;47.490;8.736;2023-02-28T10:05:54;11.10;;;6.00;;
72117;SDS011;59992;47.490;8.736;2023-02-28T10:08:32;12.00;;;6.00;;
72117;SDS011;59992;47.490;8.736;2023-02-28T10:11:10;12.70;;;7.40;;
72117;SDS011;59992;47.490;8.736;2023-02-28T10:13:46;11.00;;;6.60;;
72117;SDS011;59992;47.490;8.736;2023-02-28T10:16:23;11.50;;;6.40;;
72117;SDS011;59992;47.490;8.736;2023-02-28T10:18:58;11.30;;;6.90;;
72117;SDS011;59992;47.490;8.736;2023-02-28T10:21:34;10.40;;;6.20;;
72117;SDS011;59992;47.490;8.736;2023-02-28T10:24:11;10.40;;;6.20;;
72117;SDS011;59992;47.490;8.736;2023-02-28T10:26:47;11.20;;;6.40;;
72117;SDS011;59992;47.490;8.736;2023-02-28T10:29:19;9.40;;;4.90;;
72117;SDS011;59992;47.490;8.736;2023-02-28T10:31:49;12.40;;;6.30;;
72117;SDS011;59992;47.490;8.736;2023-02-28T10:34:19;13.50;;;6.90;;
72117;SDS011;59992;47.490;8.736;2023-02-28T10:36:49;9.50;;;5.40;;
72117;SDS011;59992;47.490;8.736;2023-02-28T10:42:23;13.40;;;7.60;;
72117;SDS011;59992;47.490;8.736;2023-02-28T10:45:10;12.70;;;7.20;;
72117;SDS011;59992;47.490;8.736;2023-02-28T10:47:48;10.70;;;5.40;;
72117;SDS011;59992;47.490;8.736;2023-02-28T10:50:28;12.50;;;6.20;;
72117;SDS011;59992;47.490;8.736;2023-02-28T10:53:07;12.80;;;7.10;;
72117;SDS011;59992;47.490;8.736;2023-02-28T10:55:45;11.90;;;7.20;;
72117;SDS011;59992;47.490;8.736;2023-02-28T10:58:27;11.90;;;7.00;;
72117;SDS011;59992;47.490;8.736;2023-02-28T11:00:58;10.80;;;6.80;;
72117;SDS011;59992;47.490;8.736;2023-02-28T11:03:32;13.00;;;7.90;;
72117;SDS011;59992;47.490;8.736;2023-02-28T11:06:07;12.60;;;7.60;;
72117;SDS011;59992;47.490;8.736;2023-02-28T11:08:45;15.00;;;7.60;;
72117;SDS011;59992;47.490;8.736;2023-02-28T11:11:17;13.40;;;7.30;;
72117;SDS011;59992;47.490;8.736;2023-02-28T11:13:50;13.70;;;7.10;;
72117;SDS011;59992;47.490;8.736;2023-02-28T11:16:22;12.10;;;7.10;;
72117;SDS011;59992;47.490;8.736;2023-02-28T11:19:02;13.00;;;6.70;;
72117;SDS011;59992;47.490;8.736;2023-02-28T11:21:35;14.60;;;7.50;;
72117;SDS011;59992;47.490;8.736;2023-02-28T11:24:12;12.20;;;7.00;;
72117;SDS011;59992;47.490;8.736;2023-02-28T11:26:51;12.40;;;7.00;;
72117;SDS011;59992;47.490;8.736;2023-02-28T11:29:22;13.70;;;6.80;;
72117;SDS011;59992;47.490;8.736;2023-02-28T11:32:03;11.20;;;6.80;;
72117;SDS011;59992;47.490;8.736;2023-02-28T11:34:44;11.60;;;6.70;;
72117;SDS011;59992;47.490;8.736;2023-02-28T11:37:16;13.90;;;7.30;;
72117;SDS011;59992;47.490;8.736;2023-02-28T11:39:47;11.30;;;7.30;;
72117;SDS011;59992;47.490;8.736;2023-02-28T11:42:31;13.40;;;7.40;;
72117;SDS011;59992;47.490;8.736;2023-02-28T11:45:35;12.60;;;7.20;;
72117;SDS011;59992;47.490;8.736;2023-02-28T11:48:16;14.10;;;8.10;;
72117;SDS011;59992;47.490;8.736;2023-02-28T11:50:52;14.90;;;7.80;;
72117;SDS011;59992;47.490;8.736;2023-02-28T11:56:20;15.10;;;7.30;;
72117;SDS011;59992;47.490;8.736;2023-02-28T11:59:07;13.50;;;7.30;;
72117;SDS011;59992;47.490;8.736;2023-02-28T12:02:06;14.50;;;8.10;;
72117;SDS011;59992;47.490;8.736;2023-02-28T12:04:54;13.20;;;6.90;;
72117;SDS011;59992;47.490;8.736;2023-02-28T12:07:39;11.70;;;6.80;;
72117;SDS011;59992;47.490;8.736;2023-02-28T12:10:20;13.70;;;7.10;;
72117;SDS011;59992;47.490;8.736;2023-02-28T12:12:58;13.50;;;7.30;;
72117;SDS011;59992;47.490;8.736;2023-02-28T12:15:46;12.20;;;7.10;;
72117;SDS011;59992;47.490;8.736;2023-02-28T12:18:45;16.50;;;7.80;;
72117;SDS011;59992;47.490;8.736;2023-02-28T12:21:27;13.10;;;7.30;;
72117;SDS011;59992;47.490;8.736;2023-02-28T12:24:10;13.30;;;7.10;;
72117;SDS011;59992;47.490;8.736;2023-02-28T12:26:59;13.00;;;7.60;;
72117;SDS011;59992;47.490;8.736;2023-02-28T12:29:34;14.40;;;8.20;;
72117;SDS011;59992;47.490;8.736;2023-02-28T12:32:12;12.10;;;7.40;;
72117;SDS011;59992;47.490;8.736;2023-02-28T12:34:47;13.80;;;7.60;;
72117;SDS011;59992;47.490;8.736;2023-02-28T12:37:22;12.50;;;7.70;;
72117;SDS011;59992;47.490;8.736;2023-02-28T12:39:59;12.90;;;7.50;;
72117;SDS011;59992;47.490;8.736;2023-02-28T12:42:33;12.10;;;7.50;;
72117;SDS011;59992;47.490;8.736;2023-02-28T12:45:10;13.20;;;8.50;;
72117;SDS011;59992;47.490;8.736;2023-02-28T12:47:45;14.70;;;8.30;;
72117;SDS011;59992;47.490;8.736;2023-02-28T12:50:18;13.60;;;7.70;;
72117;SDS011;59992;47.490;8.736;2023-02-28T12:52:53;13.80;;;7.10;;
72117;SDS011;59992;47.490;8.736;2023-02-28T12:55:31;11.50;;;6.90;;
72117;SDS011;59992;47.490;8.736;2023-02-28T12:58:10;13.00;;;7.60;;
72117;SDS011;59992;47.490;8.736;2023-02-28T13:00:56;13.40;;;7.40;;
72117;SDS011;59992;47.490;8.736;2023-02-28T13:03:51;13.90;;;8.10;;
72117;SDS011;59992;47.490;8.736;2023-02-28T13:06:41;14.10;;;7.90;;
72117;SDS011;59992;47.490;8.736;2023-02-28T13:09:24;12.30;;;7.80;;
72117;SDS011;59992;47.490;8.736;2023-02-28T13:11:57;13.50;;;7.60;;
72117;SDS011;59992;47.490;8.736;2023-02-28T13:14:29;12.50;;;7.50;;
72117;SDS011;59992;47.490;8.736;2023-02-28T13:17:10;14.30;;;7.80;;
72117;SDS011;59992;47.490;8.736;2023-02-28T13:19:55;13.00;;;7.40;;
72117;SDS011;59992;47.490;8.736;2023-02-28T13:22:40;13.70;;;7.40;;
72117;SDS011;59992;47.490;8.736;2023-02-28T13:34:35;14.10;;;8.50;;
72117;SDS011;59992;47.490;8.736;2023-02-28T13:37:33;13.90;;;7.50;;
72117;SDS011;59992;47.490;8.736;2023-02-28T13:40:22;11.60;;;7.00;;
72117;SDS011;59992;47.490;8.736;2023-02-28T13:43:06;13.50;;;7.70;;
72117;SDS011;59992;47.490;8.736;2023-02-28T13:45:37;13.90;;;7.60;;
72117;SDS011;59992;47.490;8.736;2023-02-28T13:48:16;15.00;;;8.30;;
72117;SDS011;59992;47.490;8.736;2023-02-28T13:50:52;16.40;;;9.30;;
72117;SDS011;59992;47.490;8.736;2023-02-28T13:53:32;15.30;;;9.10;;
72117;SDS011;59992;47.490;8.736;2023-02-28T13:56:27;15.10;;;9.20;;
72117;SDS011;59992;47.490;8.736;2023-02-28T13:59:12;14.20;;;8.60;;
72117;SDS011;59992;47.490;8.736;2023-02-28T14:01:53;15.00;;;8.50;;
72117;SDS011;59992;47.490;8.736;2023-02-28T14:07:29;17.50;;;8.80;;
72117;SDS011;59992;47.490;8.736;2023-02-28T14:10:06;16.10;;;8.20;;
72117;SDS011;59992;47.490;8.736;2023-02-28T14:12:57;15.00;;;8.20;;
72117;SDS011;59992;47.490;8.736;2023-02-28T14:15:38;15.00;;;8.50;;
72117;SDS011;59992;47.490;8.736;2023-02-28T14:18:25;16.40;;;8.50;;
72117;SDS011;59992;47.490;8.736;2023-02-28T14:21:00;14.60;;;8.50;;
72117;SDS011;59992;47.490;8.736;2023-02-28T14:23:41;15.30;;;8.80;;
72117;SDS011;59992;47.490;8.736;2023-02-28T14:26:25;14.00;;;8.50;;
72117;SDS011;59992;47.490;8.736;2023-02-28T14:29:11;14.00;;;8.60;;
72117;SDS011;59992;47.490;8.736;2023-02-28T14:31:57;16.90;;;8.90;;
72117;SDS011;59992;47.490;8.736;2023-02-28T14:34:36;20.20;;;9.40;;
72117;SDS011;59992;47.490;8.736;2023-02-28T14:37:15;17.10;;;8.80;;
72117;SDS011;59992;47.490;8.736;2023-02-28T14:39:48;15.90;;;8.30;;
72117;SDS011;59992;47.490;8.736;2023-02-28T14:42:32;17.80;;;9.70;;
72117;SDS011;59992;47.490;8.736;2023-02-28T14:45:05;17.20;;;9.70;;
72117;SDS011;59992;47.490;8.736;2023-02-28T14:47:45;15.90;;;8.00;;
72117;SDS011;59992;47.490;8.736;2023-02-28T14:50:20;16.00;;;8.80;;
72117;SDS011;59992;47.490;8.736;2023-02-28T14:52:53;18.50;;;10.00;;
72117;SDS011;59992;47.490;8.736;2023-02-28T14:55:25;16.80;;;9.10;;
72117;SDS011;59992;47.490;8.736;2023-02-28T14:57:58;17.20;;;9.30;;
72117;SDS011;59992;47.490;8.736;2023-02-28T15:00:31;16.90;;;9.40;;
72117;SDS011;59992;47.490;8.736;2023-02-28T15:03:17;18.40;;;10.00;;
72117;SDS011;59992;47.490;8.736;2023-02-28T15:05:52;18.40;;;10.80;;
72117;SDS011;59992;47.490;8.736;2023-02-28T15:08:24;17.40;;;10.00;;
72117;SDS011;59992;47.490;8.736;2023-02-28T15:10:57;17.90;;;10.40;;
72117;SDS011;59992;47.490;8.736;2023-02-28T15:13:30;18.30;;;10.20;;
72117;SDS011;59992;47.490;8.736;2023-02-28T15:16:06;21.20;;;11.00;;
72117;SDS011;59992;47.490;8.736;2023-02-28T15:18:43;18.00;;;10.00;;
72117;SDS011;59992;47.490;8.736;2023-02-28T15:21:16;17.00;;;9.90;;
72117;SDS011;59992;47.490;8.736;2023-02-28T15:23:50;18.90;;;9.50;;
72117;SDS011;59992;47.490;8.736;2023-02-28T15:26:23;21.90;;;10.30;;
72117;SDS011;59992;47.490;8.736;2023-02-28T15:28:58;16.70;;;9.80;;
72117;SDS011;59992;47.490;8.736;2023-02-28T15:31:33;22.00;;;9.60;;
72117;SDS011;59992;47.490;8.736;2023-02-28T15:34:04;19.90;;;11.20;;
72117;SDS011;59992;47.490;8.736;2023-02-28T15:36:44;18.30;;;10.10;;
72117;SDS011;59992;47.490;8.736;2023-02-28T15:39:20;18.40;;;9.90;;
72117;SDS011;59992;47.490;8.736;2023-02-28T15:41:51;16.60;;;9.20;;
72117;SDS011;59992;47.490;8.736;2023-02-28T15:44:37;17.40;;;9.80;;
72117;SDS011;59992;47.490;8.736;2023-02-28T15:47:11;19.30;;;10.70;;